Fairfield, TX

7:59 PM CST on December 04, 2016 (GMT -0600)
Sam's Restaurant | | Change Station

Elev 474 ft 31.73 °N, 96.15 °W | Updated 12 seconds ago

Overcast
Overcast
50.1 °F
Feels Like 50.1 °F
N
0.0
Wind Variable Wind from North
Gusts 0.0 mph

Today
High -- | Low -- °F
--% Chance of Precip.
Yesterday
High -- | Low -- °F
Precip. -- in
Pressure 30.02 in
Visibility 10.0 miles
Clouds Overcast 2100 ft
Dew Point 47 °F
Humidity 88%
Rainfall 0.00 in
Snow Depth Not available.
7:09 AM 5:20 PM
Waxing Crescent, 27% visible
METAR KLXY 050155Z AUTO 34005KT 10SM OVC021 10/07 A3002 RMK AO2 T00960065
Pressure 30.02 in
Visibility 10.0 miles
Clouds Overcast 2100 ft
Dew Point 47 °F
Humidity 88%
Rainfall 0.00 in
Snow Depth Not available.
7:09 AM 5:20 PM
Waxing Crescent, 27% visible
METAR KLXY 050155Z AUTO 34005KT 10SM OVC021 10/07 A3002 RMK AO2 T00960065

10-Day Weather Forecast

Almanac

Astronomy

Dec. 04, 2016 Rise Set
Actual Time
Civil Twilight
Nautical Twilight
Astronomical Twilight
Moon
Length of Visible Light
Length of Day
Tomorrow will be .
, % of the Moon is Illuminated

Today's Extremes

State Highs State Lows

Community

WunderPhotos

Upload Photos

1,955,744 photos uploaded!

WunderBlog® & News

Nearby

Air Quality

  Air Quality AQ Index Pollutant
Not available.

Snow Depth

Station Depth Elevation

Earthquake Activity

City Distance Mag. Time & Date
Minimum magnitude displayed is 2.5.

Coastal Water Temperatures

Place Temperature

Stations

Nearby Weather Stations

Station Location Temp. Windchill Dew Point Humidity Wind Precip. Elev Updated Type
                   

Watches & Warnings

There are currently no watches in effect.